aviador You're here:

DTTG Decoded Metar

GABES in TUNISIA
Report Time2018-06-19 06:00:00
UTC Time2018-06-19 06:50:34
Flight Rules vfr VFR
Wind050° at 10 kt
W.Decomp.*RWY 06: 9.8 kt HW 1.9 kt LCW
W.Rank050° ranks 10
Current wind is above 050° avg. (9.6)
Visibility9999 m
Phenomena:N/A
Clouds:Scattered 020 Hf
Expected CloudBase > 4,800 ft AGL from Temp-Dew spread
CeilingNone
Temp23°C (ISA +8)
Dew Point11°C (47% RH)
AAT19.7°C
QNH1016 hPa
Density Alt1,027 ft
Elevation16 ft
Report Wrong Elevation
Raw Report
METAR DTTG 190600Z 05010KT 9999 SCT020 23/11 Q1016 NOSIG=

Extra information for DTTG:More info

Metar Taf Metar & Taf Last 4 Metars F.Rules Stats Wind Profile Meteogram Temp Stats Airport Information Weather charts Add Link Nearby VenuesMetar ALERT Operation Metar Decoded Social comments